Time;durP1;ratioP1;P1;durP2;ratioP2;P2;SDS_P1;SDS_P2;PMS_P1;PMS_P2;Temp;Humidity;BMP_temperature;BMP_pressure;BME280_temperature;BME280_humidity;BME280_pressure;Samples;Min_cycle;Max_cycle;Signal;HPM_P1;HPM_P2
2022/04/22 00:02:22;;;;;;;5.22;1.85;;;;;;;;;;4968877;28;20141;-70
2022/04/22 00:04:48;;;;;;;4.13;2.03;;;;;;;;;;4968762;28;20130;-70
2022/04/22 00:07:14;;;;;;;3.75;2.30;;;;;;;;;;4966051;28;20134;-70
2022/04/22 00:09:40;;;;;;;3.05;2.00;;;;;;;;;;4969123;28;20074;-70
2022/04/22 00:12:06;;;;;;;3.95;2.17;;;;;;;;;;4968285;28;20125;-70
2022/04/22 00:14:32;;;;;;;2.75;1.80;;;;;;;;;;4968529;28;20514;-70
2022/04/22 00:16:58;;;;;;;3.92;2.05;;;;;;;;;;4968536;28;20039;-70
2022/04/22 00:19:24;;;;;;;3.63;2.17;;;;;;;;;;4968690;28;20047;-70
2022/04/22 00:21:53;;;;;;;5.60;2.40;;;;;;;;;;4968010;28;20051;-70
2022/04/22 00:24:19;;;;;;;5.05;2.03;;;;;;;;;;4968565;28;20055;-70
2022/04/22 00:26:45;;;;;;;5.40;2.58;;;;;;;;;;4968130;28;20105;-70
2022/04/22 00:29:11;;;;;;;3.35;1.80;;;;;;;;;;4968785;28;20039;-70
2022/04/22 00:31:37;;;;;;;5.32;1.77;;;;;;;;;;4968353;28;20417;-70
2022/04/22 00:34:04;;;;;;;3.47;2.13;;;;;;;;;;4966979;28;20110;-70
2022/04/22 00:36:30;;;;;;;5.47;2.25;;;;;;;;;;4966420;28;20109;-69
2022/04/22 00:38:56;;;;;;;3.60;1.83;;;;;;;;;;4968060;28;20102;-71
2022/04/22 00:41:22;;;;;;;3.42;2.00;;;;;;;;;;4968449;28;20043;-71
2022/04/22 00:43:50;;;;;;;3.45;1.90;;;;;;;;;;4951085;28;20062;-71
2022/04/22 00:46:16;;;;;;;8.15;2.03;;;;;;;;;;4968798;28;20105;-71
2022/04/22 00:48:42;;;;;;;4.43;1.85;;;;;;;;;;4967055;28;20043;-70
2022/04/22 00:51:09;;;;;;;4.30;2.20;;;;;;;;;;4967037;28;20039;-70
2022/04/22 00:53:36;;;;;;;4.95;2.20;;;;;;;;;;4960101;28;20061;-71
2022/04/22 00:56:03;;;;;;;3.40;2.15;;;;;;;;;;4967952;28;20070;-71
2022/04/22 00:58:29;;;;;;;5.10;2.05;;;;;;;;;;4966726;28;20588;-70
2022/04/22 01:00:55;;;;;;;4.20;2.30;;;;;;;;;;4968400;28;20042;-71
2022/04/22 01:03:22;;;;;;;3.05;1.90;;;;;;;;;;4967507;28;20047;-70
2022/04/22 01:11:20;;;;;;;3.95;2.15;;;;;;;;;;4966329;28;20046;-71
2022/04/22 01:13:46;;;;;;;3.78;1.90;;;;;;;;;;4967941;28;20054;-71
2022/04/22 01:16:12;;;;;;;3.63;2.08;;;;;;;;;;4966752;28;20065;-71
2022/04/22 01:18:38;;;;;;;3.20;1.83;;;;;;;;;;4971387;28;20042;-71
2022/04/22 01:21:04;;;;;;;5.00;2.25;;;;;;;;;;4971817;28;20129;-71
2022/04/22 01:23:34;;;;;;;2.97;2.03;;;;;;;;;;4973403;28;20050;-71
2022/04/22 01:26:00;;;;;;;4.22;2.13;;;;;;;;;;4973742;28;20047;-71
2022/04/22 01:28:28;;;;;;;3.35;1.92;;;;;;;;;;4972120;28;20141;-69
2022/04/22 01:30:57;;;;;;;12.18;2.60;;;;;;;;;;4973653;28;20066;-69
2022/04/22 01:33:23;;;;;;;5.05;2.28;;;;;;;;;;4973662;28;20046;-69
2022/04/22 01:35:50;;;;;;;4.18;2.08;;;;;;;;;;4973411;28;20129;-69
2022/04/22 01:38:16;;;;;;;3.70;1.80;;;;;;;;;;4973009;28;20094;-69
2022/04/22 01:40:42;;;;;;;3.67;2.08;;;;;;;;;;4973553;28;20509;-70
2022/04/22 01:43:08;;;;;;;4.40;2.25;;;;;;;;;;4973773;28;20043;-70
2022/04/22 01:45:34;;;;;;;5.13;1.88;;;;;;;;;;4973288;28;20055;-70
2022/04/22 01:48:00;;;;;;;8.05;2.13;;;;;;;;;;4973290;28;20050;-69
2022/04/22 01:50:26;;;;;;;5.68;1.95;;;;;;;;;;4973545;28;20047;-70
2022/04/22 01:52:52;;;;;;;2.90;2.00;;;;;;;;;;4973442;28;20045;-70
2022/04/22 01:55:19;;;;;;;5.25;2.25;;;;;;;;;;4972952;28;20050;-70
2022/04/22 01:57:46;;;;;;;4.03;1.95;;;;;;;;;;4973161;28;20504;-72
2022/04/22 02:00:12;;;;;;;3.55;2.22;;;;;;;;;;4973340;28;20125;-70
2022/04/22 02:02:39;;;;;;;6.35;2.10;;;;;;;;;;4973414;28;20193;-70
2022/04/22 02:05:08;;;;;;;3.92;1.77;;;;;;;;;;4972523;28;20133;-71
2022/04/22 02:07:34;;;;;;;;;;;;;;;;;;4972618;28;20404;-71
2022/04/22 02:10:00;;;;;;;3.55;1.90;;;;;;;;;;4972900;28;19922;-71
2022/04/22 02:12:26;;;;;;;2.47;1.52;;;;;;;;;;4972939;28;20043;-70
2022/04/22 02:14:52;;;;;;;3.25;1.92;;;;;;;;;;4972550;28;20043;-70
2022/04/22 02:17:18;;;;;;;5.80;2.20;;;;;;;;;;4972726;28;20114;-71
2022/04/22 02:19:44;;;;;;;5.03;2.30;;;;;;;;;;4972563;28;20505;-70
2022/04/22 02:22:10;;;;;;;3.88;1.60;;;;;;;;;;4971475;28;20408;-70
2022/04/22 02:24:37;;;;;;;6.60;2.15;;;;;;;;;;4972711;28;20386;-71
2022/04/22 02:29:48;;;;;;;6.78;2.05;;;;;;;;;;4972141;28;20093;-71
2022/04/22 02:32:14;;;;;;;8.90;1.90;;;;;;;;;;4972386;28;20058;-71
2022/04/22 02:34:40;;;;;;;3.38;1.80;;;;;;;;;;4972603;28;20046;-71
2022/04/22 02:37:07;;;;;;;3.30;1.92;;;;;;;;;;4972107;28;20093;-71
2022/04/22 02:39:33;;;;;;;4.63;2.47;;;;;;;;;;4972379;28;20433;-71
2022/04/22 02:47:28;;;;;;;4.55;1.70;;;;;;;;;;4972357;28;20424;-71
2022/04/22 02:49:54;;;;;;;4.13;1.90;;;;;;;;;;4970736;28;20046;-71
2022/04/22 02:52:20;;;;;;;2.97;1.88;;;;;;;;;;4972302;28;20054;-71
2022/04/22 02:54:46;;;;;;;3.63;2.03;;;;;;;;;;4970593;28;20417;-71
2022/04/22 02:57:12;;;;;;;5.03;1.88;;;;;;;;;;4972227;28;20043;-71
2022/04/22 02:59:39;;;;;;;3.88;2.00;;;;;;;;;;4970945;28;20078;-71
2022/04/22 03:02:08;;;;;;;5.22;1.90;;;;;;;;;;4972142;28;20090;-71
2022/04/22 03:04:34;;;;;;;4.13;2.10;;;;;;;;;;4972148;28;20489;-69
2022/04/22 03:07:00;;;;;;;3.33;1.80;;;;;;;;;;4972055;28;20101;-70
2022/04/22 03:09:26;;;;;;;7.10;2.47;;;;;;;;;;4971636;28;20039;-71
2022/04/22 03:11:52;;;;;;;5.00;2.22;;;;;;;;;;4971976;28;20468;-71
2022/04/22 03:14:19;;;;;;;4.50;1.83;;;;;;;;;;4971879;28;20046;-71
2022/04/22 03:16:45;;;;;;;5.45;1.67;;;;;;;;;;4971764;28;20101;-71
2022/04/22 03:19:11;;;;;;;5.07;2.20;;;;;;;;;;4971741;28;20046;-71
2022/04/22 03:21:37;;;;;;;5.25;2.28;;;;;;;;;;4971277;28;20039;-71
2022/04/22 03:24:03;;;;;;;5.10;1.98;;;;;;;;;;4971980;28;20125;-71
2022/04/22 03:26:29;;;;;;;8.52;1.95;;;;;;;;;;4971114;28;20501;-71
2022/04/22 03:28:58;;;;;;;5.13;2.00;;;;;;;;;;4970845;28;20047;-71
2022/04/22 03:31:25;;;;;;;6.07;1.70;;;;;;;;;;4972083;28;20833;-71
2022/04/22 03:33:51;;;;;;;6.03;2.25;;;;;;;;;;4969854;28;20282;-72
2022/04/22 03:36:17;;;;;;;3.60;1.73;;;;;;;;;;4971233;28;20444;-71
2022/04/22 03:38:43;;;;;;;7.25;1.75;;;;;;;;;;4971391;28;20105;-71
2022/04/22 03:41:13;;;;;;;3.63;1.90;;;;;;;;;;4969401;28;20051;-71
2022/04/22 03:43:40;;;;;;;5.05;1.92;;;;;;;;;;4971373;28;20082;-70
2022/04/22 03:46:15;;;;;;;5.03;1.92;;;;;;;;;;4970323;28;20190;-71
2022/04/22 03:48:41;;;;;;;3.35;1.88;;;;;;;;;;4969972;28;20042;-71
2022/04/22 03:51:07;;;;;;;10.60;2.00;;;;;;;;;;4970690;28;20047;-71
2022/04/22 03:53:36;;;;;;;3.28;1.90;;;;;;;;;;4971064;28;20043;-71
2022/04/22 03:58:10;;;;;;;3.88;2.00;;;;;;;;;;4969958;28;20460;-71
2022/04/22 03:58:49;;;;;;;4.22;1.90;;;;;;;;;;4970327;28;20491;-71
2022/04/22 04:01:15;;;;;;;3.25;1.70;;;;;;;;;;4970827;28;20089;-71
2022/04/22 04:03:41;;;;;;;3.20;1.90;;;;;;;;;;4970872;28;20043;-72
2022/04/22 04:06:08;;;;;;;3.38;1.50;;;;;;;;;;4971175;28;20050;-71
2022/04/22 04:08:34;;;;;;;4.30;2.20;;;;;;;;;;4971170;28;20084;-71
2022/04/22 04:16:21;;;;;;;4.57;1.75;;;;;;;;;;4970702;28;20054;-70
2022/04/22 04:18:47;;;;;;;5.97;2.58;;;;;;;;;;4970572;28;20042;-71
2022/04/22 04:23:57;;;;;;;3.35;1.73;;;;;;;;;;4970342;28;20047;-71
2022/04/22 04:26:24;;;;;;;4.05;1.88;;;;;;;;;;4970474;28;20053;-70
2022/04/22 04:28:51;;;;;;;5.65;1.90;;;;;;;;;;4970340;28;20043;-71
2022/04/22 04:31:17;;;;;;;6.00;1.90;;;;;;;;;;4970351;28;20490;-71
2022/04/22 04:33:44;;;;;;;3.05;1.77;;;;;;;;;;4969553;28;20046;-71
2022/04/22 04:36:10;;;;;;;4.43;1.98;;;;;;;;;;4970491;28;20043;-71
2022/04/22 04:38:37;;;;;;;5.70;1.95;;;;;;;;;;4970215;28;21041;-70
2022/04/22 04:41:03;;;;;;;4.00;1.58;;;;;;;;;;4969819;28;20086;-71
2022/04/22 04:43:29;;;;;;;4.63;1.80;;;;;;;;;;4970219;28;20046;-71
2022/04/22 04:45:55;;;;;;;3.63;1.58;;;;;;;;;;4970211;28;20043;-71
2022/04/22 04:48:21;;;;;;;4.65;1.70;;;;;;;;;;4970173;28;20053;-71
2022/04/22 04:50:49;;;;;;;4.22;2.03;;;;;;;;;;4970287;28;20424;-71
2022/04/22 04:53:17;;;;;;;3.70;1.85;;;;;;;;;;4968011;28;20042;-70
2022/04/22 04:55:43;;;;;;;2.88;1.50;;;;;;;;;;4969864;28;20047;-71
2022/04/22 04:58:09;;;;;;;3.08;1.70;;;;;;;;;;4970366;28;20058;-71
2022/04/22 05:00:35;;;;;;;4.47;2.20;;;;;;;;;;4970280;28;20074;-71
2022/04/22 05:03:02;;;;;;;4.93;2.13;;;;;;;;;;4970401;28;20079;-70
2022/04/22 05:05:28;;;;;;;5.00;1.80;;;;;;;;;;4970049;28;20078;-70
2022/04/22 05:07:57;;;;;;;5.82;2.00;;;;;;;;;;4969995;28;20401;-70
2022/04/22 05:10:23;;;;;;;4.53;1.60;;;;;;;;;;4969116;28;20150;-70
2022/04/22 05:12:50;;;;;;;3.40;1.60;;;;;;;;;;4970065;28;20051;-70
2022/04/22 05:15:17;;;;;;;3.70;1.90;;;;;;;;;;4970007;28;20047;-70
2022/04/22 05:17:43;;;;;;;3.38;1.95;;;;;;;;;;4969567;28;20047;-70
2022/04/22 05:20:10;;;;;;;2.67;1.67;;;;;;;;;;4970192;28;20386;-70
2022/04/22 05:22:36;;;;;;;2.13;1.55;;;;;;;;;;4970031;28;20050;-70
2022/04/22 05:25:04;;;;;;;3.35;1.83;;;;;;;;;;4970055;28;20089;-70
2022/04/22 05:27:31;;;;;;;2.92;1.70;;;;;;;;;;4969971;28;20065;-70
2022/04/22 05:32:47;;;;;;;4.15;1.90;;;;;;;;;;4969541;28;20047;-71
2022/04/22 05:35:13;;;;;;;2.97;1.67;;;;;;;;;;4965116;28;20133;-70
2022/04/22 05:37:49;;;;;;;3.97;1.45;;;;;;;;;;4969908;28;20085;-69
2022/04/22 05:40:16;;;;;;;8.27;2.40;;;;;;;;;;4969541;28;20138;-71
2022/04/22 05:42:43;;;;;;;5.00;1.65;;;;;;;;;;4968767;28;20063;-72
2022/04/22 05:45:10;;;;;;;6.13;1.70;;;;;;;;;;4968687;28;20054;-72
2022/04/22 05:47:36;;;;;;;6.55;1.98;;;;;;;;;;4969661;28;20086;-70
2022/04/22 05:50:02;;;;;;;3.08;1.50;;;;;;;;;;4969378;28;20043;-71
2022/04/22 05:52:28;;;;;;;3.92;1.70;;;;;;;;;;4969170;28;20125;-71
2022/04/22 05:54:57;;;;;;;5.88;1.63;;;;;;;;;;4969549;28;20109;-71
2022/04/22 05:57:24;;;;;;;3.10;1.60;;;;;;;;;;4968611;28;20046;-71
2022/04/22 05:59:50;;;;;;;2.45;1.55;;;;;;;;;;4969642;28;20051;-70
2022/04/22 06:02:18;;;;;;;4.60;1.77;;;;;;;;;;4970771;28;20047;-70
2022/04/22 06:04:44;;;;;;;3.53;1.77;;;;;;;;;;4978564;28;20051;-70
2022/04/22 06:07:10;;;;;;;2.97;1.48;;;;;;;;;;4980158;28;20047;-70
2022/04/22 06:12:21;;;;;;;5.95;1.88;;;;;;;;;;4981959;28;20054;-70
2022/04/22 06:14:47;;;;;;;4.28;1.80;;;;;;;;;;4976862;28;20055;-70
2022/04/22 06:17:13;;;;;;;4.88;2.30;;;;;;;;;;4973793;28;20467;-71
2022/04/22 06:19:39;;;;;;;5.90;1.77;;;;;;;;;;4973096;28;20042;-71
2022/04/22 06:22:05;;;;;;;3.58;1.90;;;;;;;;;;4973048;28;20468;-71
2022/04/22 06:24:32;;;;;;;2.90;1.58;;;;;;;;;;4972810;28;20042;-71
2022/04/22 06:26:58;;;;;;;4.03;2.25;;;;;;;;;;4972906;28;20069;-71
2022/04/22 06:29:24;;;;;;;2.58;1.52;;;;;;;;;;4972878;28;20051;-71
2022/04/22 06:31:51;;;;;;;4.18;1.52;;;;;;;;;;4972564;28;20450;-71
2022/04/22 06:34:17;;;;;;;6.65;2.33;;;;;;;;;;4972170;28;20047;-70
2022/04/22 06:36:43;;;;;;;11.90;2.13;;;;;;;;;;4972423;28;20051;-71
2022/04/22 06:39:10;;;;;;;7.28;1.48;;;;;;;;;;4972358;28;20058;-72
2022/04/22 06:47:22;;;;;;;5.80;1.55;;;;;;;;;;4972762;28;20085;-70
2022/04/22 06:49:48;;;;;;;5.50;1.53;;;;;;;;;;4972641;28;20133;-71
2022/04/22 06:52:14;;;;;;;5.35;1.58;;;;;;;;;;4970830;28;20054;-71
2022/04/22 06:54:40;;;;;;;2.97;1.40;;;;;;;;;;4972511;28;20046;-71
2022/04/22 06:57:06;;;;;;;9.40;1.95;;;;;;;;;;4971807;28;20043;-71
2022/04/22 06:59:33;;;;;;;6.72;1.80;;;;;;;;;;4971855;28;20050;-72
2022/04/22 07:01:59;;;;;;;4.78;1.60;;;;;;;;;;4970921;28;20058;-70
2022/04/22 07:04:25;;;;;;;4.35;1.75;;;;;;;;;;4971908;28;20051;-70
2022/04/22 07:06:52;;;;;;;9.98;2.17;;;;;;;;;;4972202;28;20070;-71
2022/04/22 07:09:18;;;;;;;4.13;1.40;;;;;;;;;;4971857;28;20468;-70
2022/04/22 07:11:44;;;;;;;6.88;2.05;;;;;;;;;;4972223;28;20065;-71
2022/04/22 07:14:11;;;;;;;4.00;1.40;;;;;;;;;;4971344;28;20042;-70
2022/04/22 07:16:43;;;;;;;4.65;1.63;;;;;;;;;;4971445;28;20043;-70
2022/04/22 07:19:09;;;;;;;4.45;1.23;;;;;;;;;;4971122;28;20054;-71
2022/04/22 07:21:35;;;;;;;3.78;1.73;;;;;;;;;;4971714;28;20045;-70
2022/04/22 07:24:01;;;;;;;7.50;1.67;;;;;;;;;;4971899;28;20081;-70
2022/04/22 07:26:28;;;;;;;4.63;1.60;;;;;;;;;;4971762;28;20054;-71
2022/04/22 07:28:56;;;;;;;3.78;1.38;;;;;;;;;;4970163;28;20567;-70
2022/04/22 07:31:23;;;;;;;3.92;1.40;;;;;;;;;;4970634;28;20527;-69
2022/04/22 07:33:49;;;;;;;5.68;1.50;;;;;;;;;;4970845;28;20059;-68
2022/04/22 07:36:15;;;;;;;8.80;1.70;;;;;;;;;;4971307;28;20062;-68
2022/04/22 07:38:41;;;;;;;7.07;1.45;;;;;;;;;;4971387;28;20042;-69
2022/04/22 07:41:08;;;;;;;3.15;1.30;;;;;;;;;;4971071;28;20047;-69
2022/04/22 07:49:05;;;;;;;4.57;1.25;;;;;;;;;;4971529;28;20054;-69
2022/04/22 07:51:31;;;;;;;2.83;1.05;;;;;;;;;;4970783;28;20521;-68
2022/04/22 07:53:57;;;;;;;2.22;0.90;;;;;;;;;;4971117;28;20255;-69
2022/04/22 07:56:23;;;;;;;3.33;1.10;;;;;;;;;;4971489;28;20130;-69
2022/04/22 08:01:26;;;;;;;3.80;1.40;;;;;;;;;;5210981;23;20046;-68
2022/04/22 08:03:55;;;;;;;2.17;1.00;;;;;;;;;;4988870;28;20065;-68
2022/04/22 08:06:21;;;;;;;6.65;1.27;;;;;;;;;;5005662;28;20137;-67
2022/04/22 08:08:48;;;;;;;2.03;0.90;;;;;;;;;;4990741;28;20054;-68
2022/04/22 08:11:14;;;;;;;1.88;0.95;;;;;;;;;;4990129;28;20484;-69
2022/04/22 08:13:41;;;;;;;2.30;1.00;;;;;;;;;;4990195;28;20042;-69
2022/04/22 08:16:07;;;;;;;2.67;1.00;;;;;;;;;;4990345;28;20165;-69
2022/04/22 08:18:33;;;;;;;2.40;0.90;;;;;;;;;;4989117;28;20730;-68
2022/04/22 08:20:59;;;;;;;2.60;1.20;;;;;;;;;;4990183;28;20105;-70
2022/04/22 08:23:26;;;;;;;3.00;1.20;;;;;;;;;;4990655;28;20042;-70
2022/04/22 08:25:52;;;;;;;3.00;1.20;;;;;;;;;;4988759;28;20057;-70
2022/04/22 08:28:18;;;;;;;3.95;1.27;;;;;;;;;;4989973;28;20104;-70
2022/04/22 08:30:44;;;;;;;2.00;1.05;;;;;;;;;;4990197;28;20046;-69
2022/04/22 08:33:10;;;;;;;3.28;1.13;;;;;;;;;;4990107;28;20053;-69
2022/04/22 08:35:36;;;;;;;1.70;0.98;;;;;;;;;;4989881;28;20046;-69
2022/04/22 08:38:03;;;;;;;4.97;1.00;;;;;;;;;;4988363;28;20051;-70
2022/04/22 08:40:30;;;;;;;2.40;1.20;;;;;;;;;;4989411;28;20567;-70
2022/04/22 08:43:00;;;;;;;1.63;0.88;;;;;;;;;;4989741;28;20058;-70
2022/04/22 08:45:27;;;;;;;3.97;1.17;;;;;;;;;;4989609;28;20423;-70
2022/04/22 08:50:38;;;;;;;1.50;0.60;;;;;;;;;;4989783;28;20057;-69
2022/04/22 08:53:06;;;;;;;1.58;1.08;;;;;;;;;;4989129;28;20045;-68
2022/04/22 08:55:32;;;;;;;2.42;1.10;;;;;;;;;;4989782;28;20051;-70
2022/04/22 08:57:59;;;;;;;2.03;1.00;;;;;;;;;;4987605;28;20046;-68
2022/04/22 09:00:27;;;;;;;3.25;1.35;;;;;;;;;;4988285;28;20046;-69
2022/04/22 09:02:57;;;;;;;2.58;1.17;;;;;;;;;;4986281;28;20061;-68
2022/04/22 09:05:25;;;;;;;2.67;1.10;;;;;;;;;;4961377;28;20448;-69
2022/04/22 09:07:51;;;;;;;3.05;1.40;;;;;;;;;;4987071;28;20418;-67
2022/04/22 09:10:17;;;;;;;2.38;1.13;;;;;;;;;;4987246;28;20043;-69
2022/04/22 09:12:52;;;;;;;3.03;1.10;;;;;;;;;;4988196;28;20108;-68
2022/04/22 09:20:28;;;;;;;2.65;1.00;;;;;;;;;;4741686;22;20070;-70
2022/04/22 09:22:56;;;;;;;3.85;1.27;;;;;;;;;;4988594;28;20054;-69
2022/04/22 09:25:23;;;;;;;2.45;1.13;;;;;;;;;;4989462;28;20495;-69
2022/04/22 09:27:49;;;;;;;3.30;1.35;;;;;;;;;;4972126;28;20054;-69
2022/04/22 09:30:16;;;;;;;2.78;1.20;;;;;;;;;;4988652;28;20038;-70
2022/04/22 09:32:44;;;;;;;3.42;1.20;;;;;;;;;;4989497;28;20528;-70
2022/04/22 09:35:15;;;;;;;2.88;0.93;;;;;;;;;;4988903;28;20117;-70
2022/04/22 09:43:23;;;;;;;2.95;1.10;;;;;;;;;;4992940;28;20782;-70
2022/04/22 09:45:51;;;;;;;1.90;1.00;;;;;;;;;;4993094;28;20050;-71
2022/04/22 09:48:19;;;;;;;3.13;1.10;;;;;;;;;;4992968;28;20035;-70
2022/04/22 09:50:52;;;;;;;2.75;1.20;;;;;;;;;;4992496;28;20046;-69
2022/04/22 09:53:19;;;;;;;3.55;1.08;;;;;;;;;;4975448;28;20046;-68
2022/04/22 09:55:48;;;;;;;1.67;0.90;;;;;;;;;;4991843;28;20052;-69
2022/04/22 09:58:22;;;;;;;3.28;1.30;;;;;;;;;;4975471;28;20425;-69
2022/04/22 10:00:49;;;;;;;1.70;0.90;;;;;;;;;;4968630;28;20054;-70
2022/04/22 10:03:16;;;;;;;3.58;1.20;;;;;;;;;;4975641;28;20047;-70
2022/04/22 10:05:43;;;;;;;3.42;1.20;;;;;;;;;;4992909;28;20049;-70
2022/04/22 10:08:10;;;;;;;1.48;0.95;;;;;;;;;;4992270;28;20205;-72
2022/04/22 10:10:39;;;;;;;3.05;1.20;;;;;;;;;;4991956;28;20100;-71
2022/04/22 10:13:05;;;;;;;3.30;1.20;;;;;;;;;;4992379;28;20435;-71
2022/04/22 10:15:33;;;;;;;1.90;0.90;;;;;;;;;;4992795;28;20046;-71
2022/04/22 10:17:59;;;;;;;1.35;0.80;;;;;;;;;;4991937;28;20054;-70
2022/04/22 10:20:25;;;;;;;2.55;1.00;;;;;;;;;;4974897;28;20440;-70
2022/04/22 10:22:52;;;;;;;4.43;1.10;;;;;;;;;;4974731;28;20415;-70
2022/04/22 10:25:18;;;;;;;2.88;1.42;;;;;;;;;;4975141;28;20533;-70
2022/04/22 10:27:44;;;;;;;8.23;1.30;;;;;;;;;;4993727;28;20038;-72
2022/04/22 10:30:11;;;;;;;3.50;1.20;;;;;;;;;;4992218;28;20499;-69
2022/04/22 10:32:42;;;;;;;8.85;1.50;;;;;;;;;;4506357;28;10000015;-70
2022/04/22 10:35:13;;;;;;;8.30;1.50;;;;;;;;;;4956050;28;20039;-71
2022/04/22 10:37:41;;;;;;;7.43;2.22;;;;;;;;;;4973372;28;20054;-72
2022/04/22 10:40:17;;;;;;;10.20;1.67;;;;;;;;;;4972420;28;20561;-70
2022/04/22 10:42:43;;;;;;;6.00;2.33;;;;;;;;;;4972757;28;20091;-70
2022/04/22 10:48:24;;;;;;;5.15;1.55;;;;;;;;;;4869643;29;20048;-73
2022/04/22 10:50:57;;;;;;;3.22;1.30;;;;;;;;;;4889934;29;20060;-72
2022/04/22 10:53:26;;;;;;;10.15;1.70;;;;;;;;;;4915604;28;20420;-72
2022/04/22 10:55:53;;;;;;;5.07;1.40;;;;;;;;;;4970268;28;20039;-73
2022/04/22 10:58:20;;;;;;;5.30;1.30;;;;;;;;;;4969863;28;20149;-70
2022/04/22 11:00:47;;;;;;;2.78;1.40;;;;;;;;;;4970881;28;20409;-72
2022/04/22 11:03:14;;;;;;;4.00;1.55;;;;;;;;;;4970614;28;20040;-68
2022/04/22 11:05:46;;;;;;;6.15;1.17;;;;;;;;;;4945594;28;20367;-72
2022/04/22 11:08:18;;;;;;;4.03;1.33;;;;;;;;;;4970332;28;20488;-72
2022/04/22 11:10:44;;;;;;;4.55;1.50;;;;;;;;;;4961396;28;20049;-68
2022/04/22 11:13:25;;;;;;;4.10;1.55;;;;;;;;;;4970467;28;20566;-69
2022/04/22 11:15:51;;;;;;;2.65;1.38;;;;;;;;;;4928246;28;20077;-69
2022/04/22 11:18:18;;;;;;;2.25;1.25;;;;;;;;;;4953857;28;20065;-70
2022/04/22 11:23:36;;;;;;;3.85;1.50;;;;;;;;;;5458802;23;22011;-70
2022/04/22 11:26:06;;;;;;;2.97;1.52;;;;;;;;;;4539776;23;10000074;-69
2022/04/22 11:28:40;;;;;;;5.80;1.60;;;;;;;;;;4953973;28;20047;-68
2022/04/22 11:31:08;;;;;;;2.10;1.35;;;;;;;;;;4981484;28;20074;-68
2022/04/22 11:33:49;;;;;;;6.45;1.73;;;;;;;;;;4951648;28;20083;-68
2022/04/22 11:36:15;;;;;;;2.03;1.42;;;;;;;;;;4948509;28;20125;-69
2022/04/22 11:38:45;;;;;;;2.58;1.60;;;;;;;;;;4935243;28;20091;-68
2022/04/22 11:41:12;;;;;;;3.60;1.40;;;;;;;;;;4932411;29;20409;-68
2022/04/22 11:43:38;;;;;;;2.42;1.30;;;;;;;;;;4932905;28;20079;-67
2022/04/22 11:46:04;;;;;;;3.13;1.20;;;;;;;;;;4949972;28;20082;-68
2022/04/22 11:48:30;;;;;;;3.33;1.40;;;;;;;;;;4957064;28;20079;-68
2022/04/22 11:51:01;;;;;;;3.83;1.45;;;;;;;;;;4961009;28;20416;-69
2022/04/22 11:53:32;;;;;;;3.13;1.50;;;;;;;;;;4961308;28;20039;-69
2022/04/22 11:55:58;;;;;;;2.20;1.30;;;;;;;;;;4951954;28;20047;-68
2022/04/22 11:58:24;;;;;;;3.15;1.50;;;;;;;;;;4954694;28;20075;-68
2022/04/22 12:06:22;;;;;;;2.22;1.25;;;;;;;;;;4964021;28;20145;-68
2022/04/22 12:08:54;;;;;;;1.83;0.90;;;;;;;;;;4957580;28;20515;-68
2022/04/22 12:11:20;;;;;;;4.97;1.50;;;;;;;;;;4956559;28;20125;-67
2022/04/22 12:13:50;;;;;;;2.05;1.00;;;;;;;;;;4960179;28;20820;-68
2022/04/22 12:16:17;;;;;;;2.25;1.50;;;;;;;;;;4953222;28;20043;-69
2022/04/22 12:18:43;;;;;;;3.30;1.60;;;;;;;;;;4958311;28;20050;-69
2022/04/22 12:21:12;;;;;;;2.40;1.25;;;;;;;;;;4959738;28;20062;-70
2022/04/22 12:23:40;;;;;;;2.75;1.30;;;;;;;;;;4958255;28;20050;-70
2022/04/22 12:26:13;;;;;;;2.92;1.27;;;;;;;;;;4957909;28;20066;-70
2022/04/22 12:28:55;;;;;;;2.72;1.30;;;;;;;;;;4959790;28;20571;-71
2022/04/22 12:31:22;;;;;;;2.78;1.35;;;;;;;;;;4953604;28;20050;-70
2022/04/22 12:33:56;;;;;;;3.00;1.42;;;;;;;;;;4955587;28;20059;-70
2022/04/22 12:36:22;;;;;;;1.70;1.15;;;;;;;;;;4956336;28;20117;-70
2022/04/22 12:38:48;;;;;;;3.15;1.35;;;;;;;;;;4956093;28;20055;-70
2022/04/22 12:41:18;;;;;;;3.63;1.35;;;;;;;;;;4957170;28;20431;-69
2022/04/22 12:43:48;;;;;;;2.83;1.27;;;;;;;;;;4955384;28;20053;-70
2022/04/22 12:52:09;;;;;;;3.78;1.40;;;;;;;;;;4956268;28;20134;-68
2022/04/22 12:54:35;;;;;;;8.63;1.60;;;;;;;;;;4955589;28;20043;-68
2022/04/22 12:57:01;;;;;;;3.30;1.30;;;;;;;;;;4960105;28;20043;-68
2022/04/22 12:59:43;;;;;;;1.85;1.20;;;;;;;;;;4958454;28;20094;-68
2022/04/22 13:02:10;;;;;;;2.10;1.20;;;;;;;;;;4956107;28;20583;-68
2022/04/22 13:04:54;;;;;;;2.47;1.20;;;;;;;;;;4958404;28;20386;-68
2022/04/22 13:07:21;;;;;;;3.55;1.30;;;;;;;;;;4956787;28;20039;-68
2022/04/22 13:09:47;;;;;;;3.47;1.60;;;;;;;;;;4953129;28;20058;-68
2022/04/22 13:12:13;;;;;;;2.47;1.48;;;;;;;;;;4956531;28;20417;-68
2022/04/22 13:14:40;;;;;;;2.47;1.20;;;;;;;;;;4957734;28;20043;-68
2022/04/22 13:17:06;;;;;;;2.80;1.40;;;;;;;;;;4958830;28;20427;-71
2022/04/22 13:19:33;;;;;;;3.97;1.50;;;;;;;;;;4958432;28;20051;-67
2022/04/22 13:21:59;;;;;;;3.65;1.25;;;;;;;;;;4957893;28;21003;-69
2022/04/22 13:24:25;;;;;;;2.72;1.23;;;;;;;;;;4952148;28;20408;-69
2022/04/22 13:26:53;;;;;;;2.45;1.30;;;;;;;;;;4955211;28;20441;-68
2022/04/22 13:29:19;;;;;;;2.40;1.35;;;;;;;;;;4957717;28;20053;-68
2022/04/22 13:31:45;;;;;;;3.47;1.50;;;;;;;;;;4958178;28;20094;-69
2022/04/22 13:34:11;;;;;;;2.50;1.30;;;;;;;;;;4955816;28;20521;-69
2022/04/22 13:36:37;;;;;;;2.92;1.33;;;;;;;;;;4954978;28;20094;-69
2022/04/22 13:39:04;;;;;;;5.30;1.48;;;;;;;;;;4958302;28;20047;-69
2022/04/22 13:41:30;;;;;;;3.20;1.38;;;;;;;;;;4957472;28;20046;-70
2022/04/22 13:43:56;;;;;;;8.68;1.27;;;;;;;;;;4959446;28;20043;-69
2022/04/22 13:54:36;;;;;;;3.95;1.77;;;;;;;;;;4951263;28;20149;-69
2022/04/22 13:57:02;;;;;;;3.45;1.38;;;;;;;;;;4951093;28;20040;-69
2022/04/22 13:59:28;;;;;;;5.22;1.63;;;;;;;;;;4951327;28;20043;-68
2022/04/22 14:01:55;;;;;;;2.78;1.33;;;;;;;;;;4962968;28;20408;-70
2022/04/22 14:04:21;;;;;;;4.65;1.17;;;;;;;;;;4952582;28;20141;-69
2022/04/22 14:06:47;;;;;;;5.85;1.73;;;;;;;;;;4953543;28;20054;-69
2022/04/22 14:09:14;;;;;;;3.03;1.30;;;;;;;;;;4951272;28;20051;-69
2022/04/22 14:11:40;;;;;;;2.53;1.55;;;;;;;;;;4931633;29;20694;-69
2022/04/22 14:14:08;;;;;;;2.97;1.50;;;;;;;;;;4930777;29;20062;-69
2022/04/22 14:16:34;;;;;;;2.50;1.63;;;;;;;;;;4930720;29;20142;-70
2022/04/22 14:19:00;;;;;;;2.35;1.48;;;;;;;;;;4931342;29;20052;-70
2022/04/22 14:21:26;;;;;;;3.45;1.50;;;;;;;;;;4931449;29;20150;-69
2022/04/22 14:23:52;;;;;;;2.70;1.35;;;;;;;;;;4932219;29;20052;-69
2022/04/22 14:26:18;;;;;;;5.03;1.50;;;;;;;;;;4952952;28;20114;-69
2022/04/22 14:28:46;;;;;;;3.05;1.20;;;;;;;;;;4954471;28;20379;-70
2022/04/22 14:31:12;;;;;;;3.22;1.42;;;;;;;;;;4954607;28;20452;-70
2022/04/22 14:33:38;;;;;;;2.55;1.40;;;;;;;;;;4953965;28;20486;-69
2022/04/22 14:36:05;;;;;;;3.30;1.58;;;;;;;;;;4953000;28;20051;-69
2022/04/22 14:38:31;;;;;;;3.17;1.70;;;;;;;;;;4953195;28;20126;-69
2022/04/22 14:40:57;;;;;;;3.08;1.60;;;;;;;;;;4953584;28;20469;-70
2022/04/22 14:43:23;;;;;;;5.80;1.80;;;;;;;;;;4953951;28;20093;-70
2022/04/22 14:45:49;;;;;;;4.90;1.90;;;;;;;;;;4972121;28;20074;-71
2022/04/22 14:48:15;;;;;;;3.30;1.52;;;;;;;;;;4973207;28;20057;-71
2022/04/22 14:50:41;;;;;;;3.47;1.50;;;;;;;;;;4972795;28;20051;-70
2022/04/22 14:53:08;;;;;;;4.38;1.42;;;;;;;;;;4972653;28;20053;-70
2022/04/22 14:55:36;;;;;;;2.10;1.30;;;;;;;;;;4972997;28;20086;-71
2022/04/22 14:58:02;;;;;;;3.63;1.60;;;;;;;;;;4972877;28;20133;-71
2022/04/22 15:00:28;;;;;;;2.45;1.30;;;;;;;;;;4955592;28;20505;-71
2022/04/22 15:02:54;;;;;;;3.50;1.80;;;;;;;;;;4953497;28;20493;-70
2022/04/22 15:05:20;;;;;;;6.35;2.03;;;;;;;;;;4953156;28;20134;-70
2022/04/22 15:07:47;;;;;;;3.75;1.70;;;;;;;;;;4953679;28;20051;-71
2022/04/22 15:10:14;;;;;;;3.47;1.70;;;;;;;;;;4953626;28;20055;-70
2022/04/22 15:12:40;;;;;;;3.55;1.38;;;;;;;;;;4953320;28;20086;-70
2022/04/22 15:15:06;;;;;;;2.33;1.50;;;;;;;;;;4952250;28;20070;-69
2022/04/22 15:25:47;;;;;;;3.45;1.33;;;;;;;;;;4952820;28;20108;-69
2022/04/22 15:52:34;;;;;;;4.20;2.03;;;;;;;;;;4573980;23;20409;-70
2022/04/22 15:55:00;;;;;;;3.85;1.65;;;;;;;;;;4950947;29;20173;-70
2022/04/22 15:57:26;;;;;;;10.40;3.45;;;;;;;;;;4950956;28;20468;-71
2022/04/22 15:59:52;;;;;;;10.73;4.25;;;;;;;;;;4951481;28;20150;-69
2022/04/22 16:02:18;;;;;;;11.05;5.20;;;;;;;;;;4951970;28;20075;-69
2022/04/22 16:04:44;;;;;;;26.48;10.48;;;;;;;;;;4951850;28;20055;-69
2022/04/22 16:07:10;;;;;;;14.18;6.88;;;;;;;;;;4951448;28;20046;-69
2022/04/22 16:09:36;;;;;;;14.60;7.13;;;;;;;;;;4943753;28;20118;-69
2022/04/22 16:17:32;;;;;;;15.30;8.35;;;;;;;;;;4944767;29;20054;-70
2022/04/22 16:19:58;;;;;;;16.40;8.57;;;;;;;;;;4938732;29;20046;-69
2022/04/22 16:22:26;;;;;;;15.13;8.45;;;;;;;;;;4939410;29;20036;-69
2022/04/22 16:24:52;;;;;;;12.85;7.15;;;;;;;;;;4939556;29;20142;-70
2022/04/22 16:27:18;;;;;;;13.93;7.57;;;;;;;;;;4940194;29;20070;-70
2022/04/22 16:29:44;;;;;;;15.07;7.70;;;;;;;;;;4939071;28;20047;-69
2022/04/22 16:32:10;;;;;;;14.90;6.95;;;;;;;;;;4940098;28;20508;-70
2022/04/22 16:34:36;;;;;;;11.90;6.85;;;;;;;;;;4940514;29;20496;-69
2022/04/22 16:37:02;;;;;;;12.52;6.75;;;;;;;;;;4936690;29;20043;-70
2022/04/22 16:39:29;;;;;;;14.38;6.70;;;;;;;;;;4936178;29;20043;-69
2022/04/22 16:41:55;;;;;;;11.05;6.03;;;;;;;;;;4942351;28;20101;-70